Time;durP1;ratioP1;P1;durP2;ratioP2;P2;SDS_P1;SDS_P2;PMS_P1;PMS_P2;Temp;Humidity;BMP_temperature;BMP_pressure;BME280_temperature;BME280_humidity;BME280_pressure;Samples;Min_cycle;Max_cycle;Signal;HPM_P1;HPM_P2
2023/02/04 00:01:50;;;;;;;1.20;1.10;;;;;;;1.40;100.00;101078.88;5030391;28;20208;-80
2023/02/04 00:04:16;;;;;;;1.97;1.07;;;;;;;1.41;100.00;101083.19;5047802;28;20220;-81
2023/02/04 00:06:42;;;;;;;1.20;1.10;;;;;;;1.39;100.00;101111.44;5038837;28;20314;-81
2023/02/04 00:09:11;;;;;;;1.50;1.20;;;;;;;1.38;100.00;101126.81;5028926;28;20534;-78
2023/02/04 00:11:37;;;;;;;1.53;1.07;;;;;;;1.36;100.00;101149.06;5030605;28;20211;-77
2023/02/04 00:14:04;;;;;;;3.60;1.20;;;;;;;1.33;100.00;101139.56;5031318;28;20227;-77
2023/02/04 00:16:30;;;;;;;1.80;1.07;;;;;;;1.31;100.00;101156.66;5033123;28;20279;-81
2023/02/04 00:18:56;;;;;;;1.53;1.23;;;;;;;1.29;100.00;101154.06;5027680;28;20538;-78
2023/02/04 00:21:23;;;;;;;1.53;1.30;;;;;;;1.28;100.00;101161.72;5030721;28;20207;-79
2023/02/04 00:23:50;;;;;;;1.97;1.40;;;;;;;1.26;100.00;101183.97;5029569;28;20222;-81
2023/02/04 00:26:17;;;;;;;2.43;1.83;;;;;;;1.29;100.00;101176.31;5030610;28;20213;-78
2023/02/04 00:28:44;;;;;;;2.57;1.93;;;;;;;1.25;100.00;101193.38;5031693;28;20258;-78
2023/02/04 00:31:10;;;;;;;3.37;2.23;;;;;;;1.32;100.00;101204.66;5026034;28;20207;-76
2023/02/04 00:33:37;;;;;;;3.47;2.03;;;;;;;1.30;100.00;101229.41;5031357;28;20200;-77
2023/02/04 00:36:03;;;;;;;2.77;2.50;;;;;;;1.30;100.00;101226.84;5029683;28;20199;-79
2023/02/04 00:38:30;;;;;;;3.77;2.37;;;;;;;1.28;100.00;101242.22;5047144;28;20314;-81
2023/02/04 00:40:56;;;;;;;4.83;2.80;;;;;;;1.29;100.00;101250.84;5047143;28;20214;-78
2023/02/04 00:43:24;;;;;;;4.60;3.10;;;;;;;1.28;100.00;101256.78;5046011;28;20199;-78
2023/02/04 00:45:51;;;;;;;3.30;3.00;;;;;;;1.26;100.00;101259.31;5031721;28;20208;-77
2023/02/04 00:48:17;;;;;;;4.57;2.80;;;;;;;1.28;100.00;101272.22;5043944;28;20208;-80
2023/02/04 00:50:43;;;;;;;3.80;2.60;;;;;;;1.27;100.00;101267.91;5041133;28;20207;-77
2023/02/04 00:53:10;;;;;;;6.40;3.10;;;;;;;1.31;100.00;101295.41;5031898;28;20192;-79
2023/02/04 00:55:37;;;;;;;3.33;2.70;;;;;;;1.29;100.00;101313.34;5025034;28;20228;-79
2023/02/04 00:58:04;;;;;;;3.63;2.47;;;;;;;1.25;100.00;101316.69;5031360;28;20202;-78
2023/02/04 01:00:32;;;;;;;4.10;2.40;;;;;;;1.30;100.00;101332.19;5029138;28;20214;-82
2023/02/04 01:02:58;;;;;;;2.80;2.30;;;;;;;1.34;100.00;101346.88;5028092;28;20685;-76
2023/02/04 01:05:25;;;;;;;2.10;1.70;;;;;;;1.32;100.00;101348.53;5027921;28;20255;-79
2023/02/04 01:07:51;;;;;;;2.90;2.00;;;;;;;1.26;100.00;101359.53;5028668;28;20203;-79
2023/02/04 01:10:18;;;;;;;3.20;2.33;;;;;;;1.21;100.00;101368.81;5044625;28;20258;-78
2023/02/04 01:12:44;;;;;;;2.63;2.20;;;;;;;1.23;100.00;101392.88;5039145;28;20561;-83
2023/02/04 01:15:11;;;;;;;2.20;1.80;;;;;;;1.29;100.00;101398.13;5025470;28;20244;-80
2023/02/04 01:17:40;;;;;;;2.53;2.20;;;;;;;1.27;100.00;101442.63;5042439;28;20204;-78
2023/02/04 01:20:07;;;;;;;4.43;2.30;;;;;;;1.28;100.00;101442.63;5030764;28;20196;-78
2023/02/04 01:22:34;;;;;;;3.40;2.07;;;;;;;1.29;100.00;101459.81;5024848;28;20215;-78
2023/02/04 01:25:00;;;;;;;2.50;1.70;;;;;;;1.20;100.00;101463.84;5028265;28;20227;-76
2023/02/04 01:27:43;;;;;;;3.23;2.07;;;;;;;1.15;100.00;101496.25;5026177;28;20176;-82
2023/02/04 01:30:11;;;;;;;2.57;1.57;;;;;;;1.05;100.00;101506.28;5036532;28;20641;-80
2023/02/04 01:32:39;;;;;;;1.93;1.40;;;;;;;1.00;100.00;101519.81;5025958;28;20204;-77
2023/02/04 01:35:06;;;;;;;1.40;1.30;;;;;;;1.00;100.00;101576.31;5027062;28;20652;-77
2023/02/04 01:37:33;;;;;;;2.10;1.50;;;;;;;0.98;100.00;101542.88;5027929;28;20589;-80
2023/02/04 01:40:00;;;;;;;1.93;1.50;;;;;;;0.92;100.00;101574.41;5026517;28;20250;-79
2023/02/04 01:42:29;;;;;;;1.57;1.33;;;;;;;0.88;100.00;101585.44;5028886;28;20208;-78
2023/02/04 01:44:56;;;;;;;1.70;1.17;;;;;;;0.84;100.00;101572.44;5029713;28;20222;-79
2023/02/04 01:47:24;;;;;;;2.17;1.40;;;;;;;0.76;100.00;101595.34;5029775;28;20234;-80
2023/02/04 01:49:54;;;;;;;1.63;1.40;;;;;;;0.77;100.00;101599.63;5027587;28;20200;-78
2023/02/04 01:52:21;;;;;;;1.40;1.30;;;;;;;0.79;100.00;101613.38;5039986;28;20665;-77
2023/02/04 01:54:48;;;;;;;2.10;1.20;;;;;;;0.76;100.00;101628.72;5043666;28;20224;-80
2023/02/04 01:57:16;;;;;;;1.80;1.43;;;;;;;0.75;100.00;101640.66;5025917;28;20223;-80
2023/02/04 01:59:44;;;;;;;1.83;1.50;;;;;;;0.73;100.00;101644.03;5029003;28;20927;-76
2023/02/04 02:02:44;;;;;;;2.17;1.20;;;;;;;0.71;100.00;101653.38;5023297;28;20210;-78
2023/02/04 02:05:15;;;;;;;1.33;1.10;;;;;;;0.69;100.00;101662.72;5035534;28;20589;-77
2023/02/04 02:07:42;;;;;;;1.40;1.30;;;;;;;0.69;100.00;101666.16;5029631;28;20207;-79
2023/02/04 02:10:11;;;;;;;1.93;1.30;;;;;;;0.63;100.00;101671.09;5026049;28;20215;-80
2023/02/04 02:12:38;;;;;;;1.63;1.20;;;;;;;0.60;100.00;101673.59;5027154;28;20211;-80
2023/02/04 02:15:05;;;;;;;1.30;1.20;;;;;;;0.61;100.00;101689.84;5044678;28;20246;-77
2023/02/04 02:17:32;;;;;;;1.50;1.40;;;;;;;0.62;100.00;101689.91;5041707;28;20577;-78
2023/02/04 02:19:59;;;;;;;1.60;1.17;;;;;;;0.62;100.00;101684.75;5028033;28;20199;-77
2023/02/04 02:22:33;;;;;;;1.47;1.17;;;;;;;0.63;100.00;101704.47;5038615;28;20216;-78
2023/02/04 02:25:02;;;;;;;1.60;1.33;;;;;;;0.63;100.00;101707.03;5027074;28;20234;-78
2023/02/04 02:27:29;;;;;;;1.23;0.90;;;;;;;0.61;100.00;101716.38;5027488;28;20222;-77
2023/02/04 02:29:58;;;;;;;2.47;1.63;;;;;;;0.62;100.00;101720.69;5027794;28;20239;-82
2023/02/04 02:32:24;;;;;;;1.43;1.33;;;;;;;0.60;100.00;101732.63;5044744;28;20211;-76
2023/02/04 02:34:52;;;;;;;1.73;1.40;;;;;;;0.58;100.00;101744.50;5028561;28;20238;-77
2023/02/04 02:37:19;;;;;;;1.10;1.00;;;;;;;0.56;100.00;101748.72;5026877;28;20203;-78
2023/02/04 02:39:45;;;;;;;1.63;1.30;;;;;;;0.52;100.00;101757.16;5028363;28;20200;-78
2023/02/04 02:42:16;;;;;;;2.23;1.33;;;;;;;0.51;100.00;101758.84;5029543;28;20569;-81
2023/02/04 02:44:47;;;;;;;1.63;1.17;;;;;;;0.45;100.00;101768.03;5043273;28;20247;-81
2023/02/04 02:47:15;;;;;;;1.27;1.10;;;;;;;0.39;100.00;101768.72;5022228;28;20243;-78
2023/02/04 02:49:42;;;;;;;2.17;1.20;;;;;;;0.34;100.00;101801.91;5027903;28;20246;-78
2023/02/04 02:52:11;;;;;;;1.70;1.00;;;;;;;0.33;100.00;101800.13;5041443;28;20203;-79
2023/02/04 02:54:38;;;;;;;1.70;1.20;;;;;;;0.28;100.00;101800.81;5026129;28;20227;-77
2023/02/04 02:57:12;;;;;;;0.90;0.90;;;;;;;0.24;100.00;101811.78;5042734;28;20303;-77
2023/02/04 02:59:40;;;;;;;2.10;1.33;;;;;;;0.22;100.00;101816.88;5026840;28;20200;-76
2023/02/04 03:02:07;;;;;;;1.37;1.00;;;;;;;0.20;100.00;101827.91;5042469;28;20223;-77
2023/02/04 03:04:38;;;;;;;1.70;1.20;;;;;;;0.21;100.00;101835.63;5027883;28;20227;-77
2023/02/04 03:07:06;;;;;;;1.57;1.20;;;;;;;0.17;100.00;101849.16;5043780;28;20913;-77
2023/02/04 03:09:34;;;;;;;1.53;0.90;;;;;;;0.20;100.00;101848.44;5044156;28;20204;-79
2023/02/04 03:12:01;;;;;;;2.70;1.27;;;;;;;0.18;100.00;101864.63;5028057;28;20203;-77
2023/02/04 03:14:29;;;;;;;1.20;0.97;;;;;;;0.14;100.00;101857.63;5039511;28;20257;-77
2023/02/04 03:16:57;;;;;;;1.17;1.07;;;;;;;0.14;100.00;101873.03;5025880;28;20209;-77
2023/02/04 03:19:26;;;;;;;1.23;0.83;;;;;;;0.15;100.00;101872.19;5027580;28;20221;-78
2023/02/04 03:21:54;;;;;;;1.10;1.00;;;;;;;0.17;100.00;101888.50;5027442;28;20618;-79
2023/02/04 03:24:22;;;;;;;1.27;1.00;;;;;;;0.21;100.00;101888.63;5043758;28;20250;-78
2023/02/04 03:26:48;;;;;;;1.20;0.93;;;;;;;0.17;100.00;101906.47;5024159;28;20295;-80
2023/02/04 03:29:15;;;;;;;1.33;1.00;;;;;;;0.16;100.00;101915.00;5026633;28;20686;-77
2023/02/04 03:31:42;;;;;;;0.90;0.80;;;;;;;0.18;100.00;101920.19;5026557;28;20208;-78
2023/02/04 03:34:09;;;;;;;0.77;0.77;;;;;;;0.16;100.00;101932.94;5027757;28;20302;-77
2023/02/04 03:36:36;;;;;;;0.80;0.80;;;;;;;0.13;100.00;101935.41;5027810;28;20202;-77
2023/02/04 03:39:03;;;;;;;1.00;0.90;;;;;;;0.13;100.00;101947.34;5032140;28;20227;-78
2023/02/04 03:41:30;;;;;;;1.47;1.00;;;;;;;0.12;100.00;101943.94;5029110;28;20204;-78
2023/02/04 03:43:56;;;;;;;1.50;1.00;;;;;;;0.11;100.00;101947.28;5030016;28;20293;-78
2023/02/04 03:46:24;;;;;;;1.30;0.90;;;;;;;0.10;100.00;101952.34;5030388;28;20216;-77
2023/02/04 03:48:51;;;;;;;1.00;0.80;;;;;;;0.06;100.00;101955.63;5029425;28;20200;-77
2023/02/04 03:51:18;;;;;;;1.20;0.80;;;;;;;-0.02;100.00;101965.56;5032202;28;20200;-78
2023/02/04 03:53:45;;;;;;;1.03;0.90;;;;;;;-0.07;100.00;101969.66;5029226;28;20205;-77
2023/02/04 03:56:11;;;;;;;0.67;0.60;;;;;;;-0.15;100.00;101977.06;5037971;28;20196;-78
2023/02/04 03:58:38;;;;;;;0.60;0.60;;;;;;;-0.23;100.00;101989.59;5031835;28;20202;-77
2023/02/04 04:01:05;;;;;;;0.70;0.70;;;;;;;-0.33;100.00;102002.84;5025215;28;20208;-78
2023/02/04 04:03:31;;;;;;;2.27;0.80;;;;;;;-0.39;100.00;102010.25;5027275;28;20195;-77
2023/02/04 04:05:58;;;;;;;0.70;0.70;;;;;;;-0.48;100.00;102009.91;5042014;28;20205;-76
2023/02/04 04:08:25;;;;;;;1.93;1.03;;;;;;;-0.54;100.00;102025.03;5027601;28;20272;-76
2023/02/04 04:10:52;;;;;;;1.97;0.87;;;;;;;-0.63;100.00;102036.63;5031573;28;20203;-76
2023/02/04 04:13:18;;;;;;;2.40;0.90;;;;;;;-0.63;100.00;102049.44;5028755;28;20287;-77
2023/02/04 04:15:45;;;;;;;1.57;0.97;;;;;;;-0.73;100.00;102054.97;5030662;28;20963;-77
2023/02/04 04:18:11;;;;;;;0.70;0.70;;;;;;;-0.80;100.00;102058.09;5032252;28;20188;-79
2023/02/04 04:20:38;;;;;;;1.53;0.90;;;;;;;-0.86;100.00;102063.81;5029084;28;20275;-77
2023/02/04 04:23:04;;;;;;;0.60;0.60;;;;;;;-0.94;100.00;102071.97;5032208;28;20906;-77
2023/02/04 04:25:32;;;;;;;0.90;0.80;;;;;;;-0.99;100.00;102080.31;5029523;28;20227;-76
2023/02/04 04:27:58;;;;;;;2.10;1.00;;;;;;;-1.05;100.00;102081.75;5028748;28;20585;-77
2023/02/04 04:30:24;;;;;;;0.97;0.60;;;;;;;-1.10;100.00;102094.34;5031245;28;20223;-76
2023/02/04 04:32:51;;;;;;;0.80;0.80;;;;;;;-1.13;100.00;102094.19;5027365;28;20203;-76
2023/02/04 04:35:18;;;;;;;0.83;0.80;;;;;;;-1.18;100.00;102113.56;5032370;28;20223;-76
2023/02/04 04:37:44;;;;;;;1.53;1.00;;;;;;;-1.25;100.00;102109.88;5031244;28;20192;-79
2023/02/04 04:40:12;;;;;;;1.30;0.80;;;;;;;-1.31;100.00;102104.47;5024215;28;20196;-77
2023/02/04 04:42:40;;;;;;;1.20;0.70;;;;;;;-1.37;100.00;102114.44;5031711;28;20557;-78
2023/02/04 04:45:09;;;;;;;0.77;0.70;;;;;;;-1.40;100.00;102139.88;5031079;28;20220;-78
2023/02/04 04:47:35;;;;;;;0.93;0.80;;;;;;;-1.45;100.00;102139.66;5031682;28;20208;-77
2023/02/04 04:50:02;;;;;;;1.30;0.90;;;;;;;-1.53;100.00;102151.19;5031677;28;20688;-77
2023/02/04 04:52:30;;;;;;;1.07;0.80;;;;;;;-1.59;100.00;102153.47;5045628;28;20212;-77
2023/02/04 04:54:57;;;;;;;1.57;1.10;;;;;;;-1.60;100.00;102164.50;5030536;28;20251;-78
2023/02/04 04:57:24;;;;;;;1.20;0.80;;;;;;;-1.69;100.00;102167.47;5031560;28;20199;-76
2023/02/04 04:59:51;;;;;;;1.20;1.00;;;;;;;-1.77;100.00;102172.22;5029854;28;20573;-77
2023/02/04 05:02:18;;;;;;;1.47;1.03;;;;;;;-1.83;100.00;102183.84;5030143;28;20218;-76
2023/02/04 05:04:47;;;;;;;1.20;0.80;;;;;;;-1.86;100.00;102192.25;5031066;28;20227;-76
2023/02/04 05:07:13;;;;;;;1.83;1.00;;;;;;;-1.91;100.00;102194.56;5026918;28;20200;-76
2023/02/04 05:09:40;;;;;;;1.10;0.97;;;;;;;-1.94;100.00;102208.88;5031501;28;20200;-76
2023/02/04 05:12:06;;;;;;;0.80;0.80;;;;;;;-1.93;100.00;102195.31;5030359;28;20691;-78
2023/02/04 05:14:33;;;;;;;2.47;1.10;;;;;;;-1.96;100.00;102202.81;5031609;28;20235;-76
2023/02/04 05:17:01;;;;;;;1.87;1.00;;;;;;;-2.02;100.00;102213.59;5046831;28;20232;-80
2023/02/04 05:19:27;;;;;;;2.60;1.63;;;;;;;-2.06;100.00;102213.38;5030589;28;20278;-78
2023/02/04 05:21:54;;;;;;;3.00;1.33;;;;;;;-2.06;100.00;102224.47;5030035;28;20192;-77
2023/02/04 05:24:20;;;;;;;2.23;1.07;;;;;;;-2.12;100.00;102229.28;5031268;28;20220;-75
2023/02/04 05:26:46;;;;;;;1.30;1.13;;;;;;;-2.18;100.00;102236.59;5027698;28;20210;-76
2023/02/04 05:29:13;;;;;;;1.93;1.13;;;;;;;-2.13;100.00;102253.06;5031384;28;20588;-76
2023/02/04 05:31:39;;;;;;;1.63;1.20;;;;;;;-2.16;100.00;102255.47;5021587;28;20449;-75
2023/02/04 05:34:07;;;;;;;2.77;1.40;;;;;;;-2.24;100.00;102265.28;5030894;28;20216;-75
2023/02/04 05:36:33;;;;;;;2.57;1.20;;;;;;;-2.29;100.00;102269.28;5031086;28;20227;-76
2023/02/04 05:39:00;;;;;;;0.97;0.90;;;;;;;-2.29;100.00;102271.81;5031027;28;20507;-76
2023/02/04 05:41:26;;;;;;;0.83;0.80;;;;;;;-2.30;100.00;102277.75;5030000;28;20200;-77
2023/02/04 05:43:52;;;;;;;1.60;1.30;;;;;;;-2.29;100.00;102285.50;5030299;28;20234;-75
2023/02/04 05:46:19;;;;;;;4.07;1.40;;;;;;;-2.30;100.00;102296.50;5046516;28;20210;-76
2023/02/04 05:48:45;;;;;;;0.97;0.83;;;;;;;-2.32;100.00;102292.13;5046890;28;20220;-76
2023/02/04 05:51:13;;;;;;;5.60;1.40;;;;;;;-2.32;100.00;102312.56;5043958;28;20201;-75
2023/02/04 05:53:40;;;;;;;1.23;0.93;;;;;;;-2.32;100.00;102317.69;5029165;28;20235;-75
2023/02/04 05:56:07;;;;;;;2.93;1.07;;;;;;;-2.29;100.00;102320.38;5030757;28;20196;-78
2023/02/04 05:58:33;;;;;;;1.23;1.10;;;;;;;-2.32;100.00;102318.56;5028770;28;20204;-75
2023/02/04 06:01:00;;;;;;;1.27;1.00;;;;;;;-2.34;100.00;102326.91;5029449;28;20200;-75
2023/02/04 06:03:31;;;;;;;1.30;0.97;;;;;;;-2.34;100.00;102329.47;5026926;28;20200;-77
2023/02/04 06:05:57;;;;;;;3.80;1.20;;;;;;;-2.35;100.00;102331.16;5029943;28;20196;-77
2023/02/04 06:08:25;;;;;;;2.07;1.47;;;;;;;-2.34;100.00;102344.81;5026767;28;20205;-75
2023/02/04 06:10:52;;;;;;;3.47;1.60;;;;;;;-2.32;100.00;102343.22;5028937;28;20200;-75
2023/02/04 06:13:18;;;;;;;3.07;1.47;;;;;;;-2.34;100.00;102350.81;5030844;28;20204;-76
2023/02/04 06:15:45;;;;;;;2.97;1.00;;;;;;;-2.34;100.00;102358.47;5025534;28;20231;-76
2023/02/04 06:18:11;;;;;;;3.87;1.20;;;;;;;-2.34;100.00;102366.16;5028980;28;20550;-75
2023/02/04 06:20:38;;;;;;;2.20;1.20;;;;;;;-2.31;100.00;102373.09;5030258;28;20338;-75
2023/02/04 06:23:04;;;;;;;1.23;1.07;;;;;;;-2.33;100.00;102377.22;5028478;28;20202;-75
2023/02/04 06:25:32;;;;;;;1.30;0.90;;;;;;;-2.30;100.00;102375.72;5029890;28;20220;-76
2023/02/04 06:27:58;;;;;;;3.30;1.93;;;;;;;-2.27;100.00;102385.22;5029631;28;20688;-75
2023/02/04 06:30:24;;;;;;;7.57;2.37;;;;;;;-2.29;100.00;102384.25;5026594;28;20192;-75
2023/02/04 06:32:51;;;;;;;4.03;2.90;;;;;;;-2.35;100.00;102389.91;5029396;28;20250;-76
2023/02/04 06:35:17;;;;;;;5.57;3.20;;;;;;;-2.36;100.00;102392.38;5024719;28;20274;-76
2023/02/04 06:37:44;;;;;;;4.70;2.73;;;;;;;-2.38;100.00;102401.66;5030271;28;20576;-75
2023/02/04 06:40:11;;;;;;;2.00;1.33;;;;;;;-2.38;100.00;102399.97;5020965;28;20224;-75
2023/02/04 06:42:39;;;;;;;2.30;1.40;;;;;;;-2.38;100.00;102407.63;5023843;28;20287;-75
2023/02/04 06:45:07;;;;;;;0.90;0.90;;;;;;;-2.42;100.00;102415.06;5025605;28;20227;-76
2023/02/04 06:47:33;;;;;;;2.13;1.27;;;;;;;-2.40;100.00;102414.34;5027560;28;20207;-76
2023/02/04 06:50:00;;;;;;;1.40;1.17;;;;;;;-2.42;100.00;102412.50;5027293;28;20626;-75
2023/02/04 06:52:26;;;;;;;4.50;1.30;;;;;;;-2.44;100.00;102421.75;5024167;28;20200;-75
2023/02/04 06:54:52;;;;;;;3.47;1.67;;;;;;;-2.42;100.00;102423.59;5029345;28;20595;-75
2023/02/04 06:57:19;;;;;;;1.87;1.10;;;;;;;-2.43;100.00;102423.50;5029568;28;20215;-76
2023/02/04 06:59:47;;;;;;;3.47;1.27;;;;;;;-2.47;100.00;102425.88;5028780;28;20223;-75
2023/02/04 07:02:14;;;;;;;1.03;0.93;;;;;;;-2.48;100.00;102430.91;5023896;28;20195;-75
2023/02/04 07:04:42;;;;;;;3.53;1.40;;;;;;;-2.50;100.00;102435.94;5028694;28;20568;-75
2023/02/04 07:07:09;;;;;;;2.83;1.70;;;;;;;-2.45;100.00;102438.75;5029023;28;20203;-75
2023/02/04 07:09:35;;;;;;;3.63;1.90;;;;;;;-2.50;100.00;102435.94;5031540;28;20210;-75
2023/02/04 07:12:01;;;;;;;1.97;1.30;;;;;;;-2.45;100.00;102448.97;5032966;28;20221;-75
2023/02/04 07:14:28;;;;;;;2.70;1.27;;;;;;;-2.48;100.00;102452.25;5032897;28;20231;-75
2023/02/04 07:16:57;;;;;;;3.47;1.30;;;;;;;-2.48;100.00;102449.69;5046239;28;20235;-75
2023/02/04 07:19:23;;;;;;;3.67;1.27;;;;;;;-2.49;100.00;102452.16;5028968;28;20525;-75
2023/02/04 07:21:52;;;;;;;4.17;1.50;;;;;;;-2.51;100.00;102444.41;5028353;28;20212;-76
2023/02/04 07:24:19;;;;;;;2.50;1.57;;;;;;;-2.53;100.00;102455.34;5031494;28;20216;-75
2023/02/04 07:26:45;;;;;;;2.20;1.50;;;;;;;-2.57;100.00;102449.19;5023986;28;20203;-75
2023/02/04 07:29:12;;;;;;;3.97;2.03;;;;;;;-2.57;100.00;102458.50;5031147;28;20239;-75
2023/02/04 07:31:39;;;;;;;3.33;1.53;;;;;;;-2.57;100.00;102461.03;5033090;28;20668;-75
2023/02/04 07:34:07;;;;;;;5.53;1.57;;;;;;;-2.60;100.00;102468.53;5029798;28;20239;-75
2023/02/04 07:36:33;;;;;;;3.30;1.53;;;;;;;-2.58;100.00;102470.38;5030569;28;20509;-75
2023/02/04 07:38:59;;;;;;;2.50;1.63;;;;;;;-2.61;100.00;102472.75;5031352;28;20271;-75
2023/02/04 07:41:26;;;;;;;1.30;1.20;;;;;;;-2.61;100.00;102469.34;5032535;28;20200;-75
2023/02/04 07:43:52;;;;;;;2.93;2.17;;;;;;;-2.60;100.00;102469.44;5027501;28;20216;-75
2023/02/04 07:46:18;;;;;;;5.87;3.43;;;;;;;-2.54;100.00;102479.09;5032482;28;20673;-75
2023/02/04 07:48:45;;;;;;;2.83;2.10;;;;;;;-2.46;100.00;102480.44;5031661;28;20216;-75
2023/02/04 07:51:13;;;;;;;2.27;1.70;;;;;;;-2.41;100.00;102489.25;5028544;28;20273;-75
2023/02/04 07:53:39;;;;;;;3.03;1.70;;;;;;;-2.39;100.00;102491.84;5028898;28;20200;-75
2023/02/04 07:56:06;;;;;;;2.73;1.70;;;;;;;-2.34;100.00;102491.34;5029954;28;20207;-75
2023/02/04 07:58:32;;;;;;;3.30;1.93;;;;;;;-2.32;100.00;102497.41;5029424;28;20200;-75
2023/02/04 08:01:00;;;;;;;5.53;1.80;;;;;;;-2.30;100.00;102500.94;5031147;28;20195;-75
2023/02/04 08:03:28;;;;;;;5.33;2.17;;;;;;;-2.23;100.00;102519.16;5029530;28;20215;-75
2023/02/04 08:05:54;;;;;;;5.57;1.93;;;;;;;-2.22;100.00;102519.25;5029366;28;20744;-76
2023/02/04 08:08:22;;;;;;;3.10;1.50;;;;;;;-2.14;100.00;102522.25;5029819;28;20212;-75
2023/02/04 08:10:49;;;;;;;6.97;2.57;;;;;;;-2.08;100.00;102527.69;5032393;28;20211;-76
2023/02/04 08:13:15;;;;;;;6.07;1.20;;;;;;;-2.02;100.00;102532.25;5031753;28;20235;-75
2023/02/04 08:15:41;;;;;;;2.53;2.17;;;;;;;-1.93;100.00;102540.47;5031566;28;20219;-75
2023/02/04 08:18:08;;;;;;;5.50;2.03;;;;;;;-1.89;100.00;102544.06;5030498;28;20196;-76
2023/02/04 08:20:34;;;;;;;1.90;1.70;;;;;;;-1.84;100.00;102548.63;5031290;28;20199;-75
2023/02/04 08:23:00;;;;;;;6.13;1.80;;;;;;;-1.76;100.00;102547.41;5031322;28;20199;-75
2023/02/04 08:25:29;;;;;;;2.40;1.33;;;;;;;-1.65;100.00;102547.06;5028239;28;20223;-75
2023/02/04 08:27:56;;;;;;;6.20;1.50;;;;;;;-1.58;100.00;102564.56;5031217;28;20294;-75
2023/02/04 08:30:22;;;;;;;2.80;1.57;;;;;;;-1.53;100.00;102569.13;5030742;28;20663;-75
2023/02/04 08:32:49;;;;;;;6.03;1.57;;;;;;;-1.42;100.00;102561.13;5027898;28;20573;-75
2023/02/04 08:35:16;;;;;;;3.47;1.60;;;;;;;-1.36;100.00;102567.44;5029612;28;20223;-75
2023/02/04 08:37:42;;;;;;;4.40;1.70;;;;;;;-1.31;100.00;102567.69;5029150;28;20203;-76
2023/02/04 08:40:10;;;;;;;2.90;1.50;;;;;;;-1.21;100.00;102567.41;5030522;28;20675;-76
2023/02/04 08:42:38;;;;;;;3.70;1.43;;;;;;;-1.15;100.00;102583.06;5028497;28;20675;-75
2023/02/04 08:45:04;;;;;;;2.90;1.30;;;;;;;-1.12;100.00;102584.94;5030735;28;20485;-75
2023/02/04 08:47:31;;;;;;;1.60;1.30;;;;;;;-1.06;100.00;102597.16;5029355;28;20842;-75
2023/02/04 08:49:57;;;;;;;2.33;1.90;;;;;;;-0.99;100.00;102604.38;5028053;28;20199;-76
2023/02/04 08:52:24;;;;;;;3.80;2.20;;;;;;;-0.91;100.00;102604.78;5027826;28;20196;-76
2023/02/04 08:54:50;;;;;;;6.27;3.00;;;;;;;-0.81;100.00;102605.34;5022836;28;20219;-76
2023/02/04 08:57:16;;;;;;;2.27;1.30;;;;;;;-0.78;100.00;102613.16;5030395;28;20210;-76
2023/02/04 08:59:44;;;;;;;4.43;2.90;;;;;;;-0.79;100.00;102614.00;5030099;28;20200;-76
2023/02/04 09:02:11;;;;;;;7.30;2.07;;;;;;;-0.77;100.00;102614.06;5025291;28;20204;-76
2023/02/04 09:04:37;;;;;;;3.07;2.03;;;;;;;-0.72;100.00;102621.97;5029240;28;20234;-76
2023/02/04 09:07:04;;;;;;;6.43;2.40;;;;;;;-0.68;100.00;102626.47;5044932;28;20211;-76
2023/02/04 09:09:30;;;;;;;5.60;1.93;;;;;;;-0.58;100.00;102629.59;5029219;28;20301;-76
2023/02/04 09:11:57;;;;;;;12.17;6.63;;;;;;;-0.46;100.00;102623.31;5041085;28;20247;-76
2023/02/04 09:14:24;;;;;;;14.33;5.63;;;;;;;-0.38;100.00;102633.16;5041642;28;20585;-76
2023/02/04 09:16:51;;;;;;;11.10;5.27;;;;;;;-0.30;100.00;102627.53;5028733;28;20205;-77
2023/02/04 09:19:23;;;;;;;3.83;2.33;;;;;;;-0.22;100.00;102633.94;5032148;28;20202;-76
2023/02/04 09:21:50;;;;;;;3.97;1.60;;;;;;;-0.15;100.00;102642.84;5044793;28;20579;-77
2023/02/04 09:24:17;;;;;;;5.03;2.30;;;;;;;-0.15;100.00;102647.97;5027392;28;20227;-76
2023/02/04 09:26:43;;;;;;;5.83;2.87;;;;;;;-0.08;100.00;102652.59;5022804;28;20804;-77
2023/02/04 09:29:09;;;;;;;8.53;3.67;;;;;;;-0.03;100.00;102652.00;5026733;28;20204;-76
2023/02/04 09:31:36;;;;;;;5.37;3.23;;;;;;;0.01;100.00;102647.91;5030294;28;20200;-77
2023/02/04 09:34:04;;;;;;;4.40;2.20;;;;;;;0.12;100.00;102658.69;5025646;28;20223;-77
2023/02/04 09:36:36;;;;;;;4.17;1.60;;;;;;;0.24;100.00;102658.44;5026691;28;20579;-76
2023/02/04 09:39:03;;;;;;;7.03;1.53;;;;;;;0.32;100.00;102659.69;5027422;28;20563;-77
2023/02/04 09:41:30;;;;;;;1.90;1.57;;;;;;;0.40;100.00;102665.19;5028715;28;20720;-76
2023/02/04 09:43:56;;;;;;;4.23;1.73;;;;;;;0.42;100.00;102671.25;5026813;28;20223;-77
2023/02/04 09:46:27;;;;;;;4.30;2.23;;;;;;;0.45;100.00;102674.00;5025658;28;20230;-76
2023/02/04 09:48:56;;;;;;;3.93;2.30;;;;;;;0.51;100.00;102680.31;5023020;28;20222;-76
2023/02/04 09:51:27;;;;;;;2.10;1.53;;;;;;;0.51;100.00;102676.84;5028001;28;20274;-75
2023/02/04 09:54:08;;;;;;;10.03;5.43;;;;;;;0.48;100.00;102686.97;5027261;28;20303;-76
2023/02/04 09:56:35;;;;;;;4.77;2.73;;;;;;;0.56;100.00;102685.63;5027177;28;20207;-77
2023/02/04 09:59:01;;;;;;;1.87;1.70;;;;;;;0.65;100.00;102698.03;5039297;28;20212;-77
2023/02/04 10:01:28;;;;;;;2.60;1.03;;;;;;;0.70;100.00;102692.34;5026754;28;20204;-77
2023/02/04 10:03:58;;;;;;;3.43;1.30;;;;;;;0.81;100.00;102695.41;5022336;28;20230;-76
2023/02/04 10:06:26;;;;;;;3.23;1.70;;;;;;;0.85;100.00;102706.69;5026054;28;20207;-76
2023/02/04 10:08:54;;;;;;;1.17;0.97;;;;;;;0.89;100.00;102706.03;5035700;28;20566;-75
2023/02/04 10:11:22;;;;;;;0.73;0.70;;;;;;;0.98;100.00;102711.59;5021308;28;20198;-74
2023/02/04 10:13:51;;;;;;;2.70;1.10;;;;;;;1.09;100.00;102712.09;5042861;28;20195;-75
2023/02/04 10:16:21;;;;;;;1.07;0.83;;;;;;;1.15;100.00;102722.66;5028870;28;20283;-75
2023/02/04 10:18:47;;;;;;;2.50;1.43;;;;;;;1.24;100.00;102720.50;5028497;28;20198;-75
2023/02/04 10:21:16;;;;;;;3.10;1.10;;;;;;;1.32;100.00;102724.31;5024993;28;20695;-75
2023/02/04 10:23:48;;;;;;;1.73;1.37;;;;;;;1.34;100.00;102729.53;5025163;28;20207;-75
2023/02/04 10:26:16;;;;;;;1.77;0.93;;;;;;;1.32;100.00;102737.16;5025443;28;20553;-75
2023/02/04 10:28:44;;;;;;;1.93;0.77;;;;;;;1.32;100.00;102734.59;5024812;28;20207;-76
2023/02/04 10:31:29;;;;;;;1.50;0.83;;;;;;;1.36;100.00;102734.75;5027696;28;20654;-75
2023/02/04 10:34:04;;;;;;;2.13;1.17;;;;;;;1.37;100.00;102733.91;5040065;28;20227;-75
2023/02/04 10:36:30;;;;;;;3.07;1.97;;;;;;;1.44;100.00;102738.50;5026913;28;20551;-75
2023/02/04 10:39:02;;;;;;;2.87;1.43;;;;;;;1.48;100.00;102736.16;5027930;28;20207;-75
2023/02/04 10:41:29;;;;;;;1.13;0.77;;;;;;;1.57;100.00;102739.97;5026608;28;20222;-75
2023/02/04 10:44:04;;;;;;;0.87;0.83;;;;;;;1.67;100.00;102732.72;5027059;28;20220;-75
2023/02/04 10:46:30;;;;;;;1.33;1.13;;;;;;;1.75;100.00;102739.91;5026250;28;20195;-75
2023/02/04 10:48:57;;;;;;;2.13;1.50;;;;;;;1.74;100.00;102749.28;5026508;28;20623;-75
2023/02/04 10:51:23;;;;;;;1.40;1.30;;;;;;;1.66;100.00;102746.38;5025627;28;20771;-75
2023/02/04 10:56:35;;;;;;;1.00;0.80;;;;;;;1.51;100.00;102744.03;5025629;28;20688;-75
2023/02/04 10:59:02;;;;;;;4.07;1.93;;;;;;;1.46;100.00;102742.03;5021913;28;20200;-75
2023/02/04 11:01:29;;;;;;;4.27;2.43;;;;;;;1.42;100.00;102751.28;5021353;28;20189;-76
2023/02/04 11:03:55;;;;;;;3.17;1.30;;;;;;;1.41;100.00;102746.97;5023354;28;20240;-75
2023/02/04 11:06:24;;;;;;;4.93;2.70;;;;;;;1.36;100.00;102745.03;5025009;28;20802;-76
2023/02/04 11:08:53;;;;;;;1.17;1.07;;;;;;;1.32;100.00;102744.00;5022986;28;20371;-75
2023/02/04 11:11:22;;;;;;;11.20;6.47;;;;;;;1.48;100.00;102740.44;5020549;28;20243;-75
2023/02/04 11:14:01;;;;;;;13.97;7.47;;;;;;;1.68;100.00;102746.47;5022846;28;20557;-75
2023/02/04 11:16:34;;;;;;;15.17;5.53;;;;;;;1.88;100.00;102740.50;5025342;28;20203;-75
2023/02/04 11:19:03;;;;;;;3.07;1.53;;;;;;;2.08;100.00;102741.34;5019728;28;20207;-74
2023/02/04 11:21:42;;;;;;;2.80;1.07;;;;;;;2.15;100.00;102757.94;5026523;28;20638;-75
2023/02/04 11:24:24;;;;;;;1.40;0.80;;;;;;;2.01;100.00;102759.91;5025711;28;20235;-75
2023/02/04 11:26:53;;;;;;;4.53;0.63;;;;;;;1.91;100.00;102757.75;5032643;28;20570;-75